Time;durP1;ratioP1;P1;durP2;ratioP2;P2;SDS_P1;SDS_P2;PMS_P1;PMS_P2;Temp;Humidity;BMP_temperature;BMP_pressure;BME280_temperature;BME280_humidity;BME280_pressure;Samples;Min_cycle;Max_cycle;Signal;HPM_P1;HPM_P2
2022/12/06 00:01:41;;;;;;;2.40;0.55;;;19.50;1.00;;;;;;4806886;29;20085;-39
2022/12/06 00:04:10;;;;;;;1.98;0.60;;;19.50;1.00;;;;;;4806542;29;20042;-41
2022/12/06 00:06:47;;;;;;;1.25;0.38;;;19.40;1.00;;;;;;4806945;29;20054;-39
2022/12/06 00:09:26;;;;;;;1.55;0.45;;;19.40;1.00;;;;;;4806853;29;20500;-39
2022/12/06 00:11:53;;;;;;;2.65;0.63;;;19.30;1.00;;;;;;4806670;29;20496;-40
2022/12/06 00:14:20;;;;;;;0.90;0.35;;;19.20;1.00;;;;;;4806763;29;20063;-41
2022/12/06 00:16:47;;;;;;;1.45;0.60;;;19.20;1.00;;;;;;4807728;29;20146;-39
2022/12/06 00:19:20;;;;;;;1.75;0.75;;;19.20;1.00;;;;;;4807319;29;20039;-39
2022/12/06 00:21:47;;;;;;;1.55;0.57;;;19.10;1.00;;;;;;4806467;29;20081;-39
2022/12/06 00:24:17;;;;;;;3.97;0.60;;;19.10;1.00;;;;;;4806250;29;20491;-40
2022/12/06 00:26:46;;;;;;;1.42;0.57;;;19.00;1.00;;;;;;4806404;29;20104;-39
2022/12/06 00:29:18;;;;;;;1.20;0.50;;;19.00;1.00;;;;;;4790110;29;20062;-40
2022/12/06 00:31:45;;;;;;;2.17;0.70;;;18.90;1.00;;;;;;4806531;29;20086;-40
2022/12/06 00:34:12;;;;;;;1.63;0.70;;;18.90;1.00;;;;;;4806058;29;20051;-40
2022/12/06 00:36:40;;;;;;;0.98;0.50;;;18.80;1.00;;;;;;4806189;29;20138;-40
2022/12/06 00:39:13;;;;;;;3.22;1.00;;;18.80;1.00;;;;;;4806306;29;20389;-40
2022/12/06 00:41:40;;;;;;;1.70;0.40;;;18.80;1.00;;;;;;4806098;29;20054;-40
2022/12/06 00:44:08;;;;;;;1.83;0.52;;;18.70;1.00;;;;;;4805841;29;20051;-40
2022/12/06 00:46:36;;;;;;;1.38;0.63;;;18.70;1.00;;;;;;4805789;29;20118;-40
2022/12/06 00:49:06;;;;;;;1.83;0.55;;;18.60;1.00;;;;;;4806129;29;20122;-40
2022/12/06 00:51:35;;;;;;;1.25;0.70;;;18.60;1.00;;;;;;4790086;29;20138;-40
2022/12/06 00:54:02;;;;;;;1.60;0.50;;;18.50;1.00;;;;;;4805036;29;20495;-40
2022/12/06 00:56:29;;;;;;;1.67;0.57;;;18.50;1.00;;;;;;4806254;29;20061;-40
2022/12/06 00:58:56;;;;;;;1.50;0.60;;;18.40;1.00;;;;;;4805875;29;20051;-40
2022/12/06 01:01:26;;;;;;;2.55;0.60;;;18.40;1.00;;;;;;4805795;29;20046;-40
2022/12/06 01:03:58;;;;;;;3.03;0.60;;;18.40;1.00;;;;;;4805388;29;20043;-40
2022/12/06 01:06:28;;;;;;;1.90;0.73;;;18.30;1.00;;;;;;4805634;29;20087;-40
2022/12/06 01:08:57;;;;;;;2.55;0.52;;;18.30;1.00;;;;;;4805678;29;20042;-40
2022/12/06 01:11:24;;;;;;;0.73;0.38;;;18.20;1.00;;;;;;4805671;29;20515;-40
2022/12/06 01:13:52;;;;;;;3.25;0.55;;;18.20;1.00;;;;;;4805228;29;20043;-40
2022/12/06 01:16:22;;;;;;;1.10;0.40;;;18.20;1.00;;;;;;4805674;29;20125;-39
2022/12/06 01:18:56;;;;;;;3.88;0.82;;;18.10;1.00;;;;;;4805659;29;20050;-40
2022/12/06 01:21:24;;;;;;;3.50;0.77;;;18.10;1.00;;;;;;4805432;29;20122;-40
2022/12/06 01:23:53;;;;;;;2.05;0.32;;;18.00;1.00;;;;;;4805147;29;20103;-40
2022/12/06 01:26:28;;;;;;;1.85;0.60;;;18.00;1.00;;;;;;4805440;29;20046;-40
2022/12/06 01:28:57;;;;;;;1.48;0.47;;;18.00;1.00;;;;;;4805611;29;20508;-39
2022/12/06 01:31:23;;;;;;;1.55;0.40;;;18.00;1.00;;;;;;4805266;29;20119;-39
2022/12/06 01:33:50;;;;;;;1.33;0.85;;;17.90;1.00;;;;;;4804720;29;20088;-39
2022/12/06 01:36:20;;;;;;;3.13;0.52;;;17.90;1.00;;;;;;4805334;29;20055;-38
2022/12/06 01:38:55;;;;;;;1.42;0.45;;;17.90;1.00;;;;;;4804892;29;20069;-39
2022/12/06 01:41:25;;;;;;;1.40;0.35;;;17.80;1.00;;;;;;4805125;29;20230;-38
2022/12/06 01:43:52;;;;;;;0.70;0.30;;;17.80;1.00;;;;;;4804751;29;20138;-39
2022/12/06 01:46:21;;;;;;;1.95;0.70;;;17.70;1.00;;;;;;4805156;29;20039;-39
2022/12/06 01:48:51;;;;;;;0.77;0.28;;;17.70;1.00;;;;;;4804997;29;20093;-40
2022/12/06 01:51:17;;;;;;;2.05;0.57;;;17.70;1.00;;;;;;4805224;29;20078;-40
2022/12/06 01:53:46;;;;;;;0.82;0.35;;;17.60;1.00;;;;;;4804726;29;20046;-39
2022/12/06 01:56:13;;;;;;;0.80;0.30;;;17.60;1.00;;;;;;4805011;29;20496;-39
2022/12/06 01:58:42;;;;;;;1.15;0.50;;;17.60;1.00;;;;;;4804797;29;20050;-39
2022/12/06 02:01:10;;;;;;;1.33;0.40;;;17.60;1.00;;;;;;4804943;29;20488;-39
2022/12/06 02:03:37;;;;;;;1.20;0.55;;;17.50;1.00;;;;;;4821432;29;20051;-39
2022/12/06 02:06:06;;;;;;;1.25;0.57;;;17.50;1.00;;;;;;4822402;29;20043;-40
2022/12/06 02:08:35;;;;;;;1.58;0.70;;;17.40;1.00;;;;;;4823374;29;20079;-39
2022/12/06 02:11:03;;;;;;;1.42;0.60;;;17.40;1.00;;;;;;4823103;29;20159;-39
2022/12/06 02:13:32;;;;;;;1.45;0.40;;;17.40;1.00;;;;;;4822581;29;20062;-39
2022/12/06 02:16:10;;;;;;;0.85;0.40;;;17.40;1.00;;;;;;4822971;29;20507;-40
2022/12/06 02:18:55;;;;;;;2.92;0.50;;;17.40;1.00;;;;;;4823073;29;20129;-39
2022/12/06 02:21:34;;;;;;;1.75;0.30;;;17.30;1.00;;;;;;4822965;29;20134;-39
2022/12/06 02:24:13;;;;;;;2.17;0.45;;;17.30;1.00;;;;;;4822784;29;20043;-39
2022/12/06 02:26:49;;;;;;;1.25;0.50;;;17.30;1.00;;;;;;4823084;29;20646;-39
2022/12/06 02:29:24;;;;;;;1.85;0.60;;;17.20;1.00;;;;;;4823069;29;20447;-39
2022/12/06 02:32:09;;;;;;;0.50;0.32;;;17.20;1.00;;;;;;4822751;29;20088;-40
2022/12/06 02:34:45;;;;;;;1.05;0.80;;;17.20;1.00;;;;;;4822689;29;20133;-40
2022/12/06 02:37:35;;;;;;;1.27;0.30;;;17.20;1.00;;;;;;4823041;29;20050;-40
2022/12/06 02:40:06;;;;;;;1.30;0.57;;;17.10;1.00;;;;;;4822802;29;20534;-40
2022/12/06 02:42:39;;;;;;;2.60;0.30;;;17.10;1.00;;;;;;4822488;29;20162;-40
2022/12/06 02:45:12;;;;;;;;;;;17.10;1.00;;;;;;4823172;29;20532;-40
2022/12/06 02:47:40;;;;;;;2.10;0.50;;;17.00;1.00;;;;;;4823071;29;20010;-40
2022/12/06 02:50:12;;;;;;;2.58;0.52;;;17.00;1.00;;;;;;4822712;29;20125;-40
2022/12/06 02:52:43;;;;;;;1.70;0.30;;;17.00;1.00;;;;;;4822390;29;20141;-41
2022/12/06 02:55:11;;;;;;;1.65;0.40;;;17.00;1.00;;;;;;4822617;29;20068;-40
2022/12/06 02:57:46;;;;;;;2.13;0.75;;;16.90;1.00;;;;;;4822682;29;20495;-40
2022/12/06 03:00:28;;;;;;;1.15;0.38;;;16.90;1.00;;;;;;4822467;29;20099;-40
2022/12/06 03:03:05;;;;;;;0.93;0.35;;;16.90;1.00;;;;;;4822227;29;20085;-47
2022/12/06 03:05:53;;;;;;;0.93;0.57;;;16.90;1.00;;;;;;4822496;29;20062;-40
2022/12/06 03:09:06;;;;;;;0.85;0.43;;;16.90;1.00;;;;;;4822644;29;20050;-40
2022/12/06 03:12:00;;;;;;;1.60;0.30;;;16.80;1.00;;;;;;4794507;29;20058;-40
2022/12/06 03:14:35;;;;;;;0.75;0.43;;;16.80;1.00;;;;;;4822212;29;20487;-40
2022/12/06 03:17:35;;;;;;;2.00;0.30;;;16.80;1.00;;;;;;4824147;29;20042;-40
2022/12/06 03:20:14;;;;;;;0.70;0.43;;;16.80;1.00;;;;;;4810849;29;20066;-40
2022/12/06 03:22:47;;;;;;;0.80;0.40;;;16.70;1.00;;;;;;4825306;29;20058;-40
2022/12/06 03:25:15;;;;;;;1.73;0.60;;;16.70;1.00;;;;;;4825521;29;20051;-40
2022/12/06 03:27:43;;;;;;;1.08;0.50;;;16.70;1.00;;;;;;4825536;29;20129;-40
2022/12/06 03:30:12;;;;;;;1.58;0.32;;;16.70;1.00;;;;;;4825411;29;20074;-40
2022/12/06 03:32:44;;;;;;;2.10;0.57;;;16.70;1.00;;;;;;4835045;24;20626;-31
2022/12/06 03:35:15;;;;;;;1.33;0.45;;;16.60;1.00;;;;;;4841897;29;20049;-32
2022/12/06 03:37:46;;;;;;;1.20;0.50;;;16.60;1.00;;;;;;4836064;29;20041;-31
2022/12/06 03:40:19;;;;;;;1.77;0.45;;;16.60;1.00;;;;;;4839882;29;20054;-32
2022/12/06 03:42:47;;;;;;;;;;;16.60;1.00;;;;;;4839684;29;20034;-32
2022/12/06 03:45:14;;;;;;;2.00;0.47;;;16.60;1.00;;;;;;4843683;29;20427;-32
2022/12/06 03:47:55;;;;;;;0.63;0.40;;;16.50;1.00;;;;;;4843598;29;20045;-31
2022/12/06 03:50:29;;;;;;;1.63;0.20;;;16.50;1.00;;;;;;4841322;29;20056;-31
2022/12/06 03:52:58;;;;;;;1.80;0.25;;;16.50;1.00;;;;;;4832788;29;20046;-32
2022/12/06 03:55:25;;;;;;;2.65;0.40;;;16.50;1.00;;;;;;4843351;29;20570;-32
2022/12/06 03:57:51;;;;;;;0.73;0.28;;;16.50;1.00;;;;;;4843356;29;20110;-31
2022/12/06 04:00:18;;;;;;;0.88;0.45;;;16.50;1.00;;;;;;4843231;29;20046;-31
2022/12/06 04:02:45;;;;;;;1.00;0.40;;;16.40;1.00;;;;;;4842975;29;20124;-32
2022/12/06 04:05:12;;;;;;;1.95;0.20;;;16.40;1.00;;;;;;4843364;29;20049;-32
2022/12/06 04:07:39;;;;;;;1.00;0.40;;;16.40;1.00;;;;;;4843081;29;20046;-31
2022/12/06 04:10:06;;;;;;;1.10;0.60;;;16.40;1.00;;;;;;4843087;29;20038;-31
2022/12/06 04:15:21;;;;;;;0.45;0.20;;;16.40;1.00;;;;;;4843014;29;20105;-32
2022/12/06 04:23:20;;;;;;;3.30;0.45;;;16.30;1.00;;;;;;4826025;29;20460;-31
2022/12/06 04:25:46;;;;;;;1.05;0.40;;;16.30;1.00;;;;;;4842710;29;20069;-32
2022/12/06 04:39:21;;;;;;;1.05;0.47;;;16.20;1.00;;;;;;4842655;29;20133;-31
2022/12/06 04:44:34;;;;;;;1.20;0.30;;;16.20;1.00;;;;;;4842345;29;20080;-32
2022/12/06 04:47:02;;;;;;;0.40;0.10;;;16.20;1.00;;;;;;4843110;29;20483;-32
2022/12/06 04:49:29;;;;;;;2.10;0.63;;;16.20;1.00;;;;;;4842299;29;20050;-32
2022/12/06 04:51:56;;;;;;;1.63;0.40;;;16.20;1.00;;;;;;4842297;29;20054;-31
2022/12/06 04:54:23;;;;;;;1.02;0.30;;;16.20;1.00;;;;;;4842013;29;20137;-31
2022/12/06 04:56:50;;;;;;;0.85;0.35;;;16.10;1.00;;;;;;4842378;29;20042;-32
2022/12/06 04:59:17;;;;;;;1.38;0.50;;;16.10;1.00;;;;;;4842251;29;20046;-31
2022/12/06 05:01:43;;;;;;;1.90;0.40;;;16.10;1.00;;;;;;4841978;29;20061;-32
2022/12/06 05:04:10;;;;;;;0.88;0.35;;;16.10;1.00;;;;;;4841737;29;20052;-32
2022/12/06 05:06:37;;;;;;;0.85;0.30;;;16.10;1.00;;;;;;4842093;29;20042;-31
2022/12/06 05:09:04;;;;;;;1.00;0.35;;;16.10;1.00;;;;;;4834161;29;20042;-32
2022/12/06 05:11:30;;;;;;;1.98;0.22;;;16.00;1.00;;;;;;4830831;29;20095;-33
2022/12/06 05:13:58;;;;;;;2.08;0.25;;;16.10;1.00;;;;;;4831560;29;20054;-32
2022/12/06 05:16:25;;;;;;;1.17;0.40;;;16.10;1.00;;;;;;4841757;29;20506;-31
2022/12/06 05:18:51;;;;;;;0.93;0.47;;;16.00;1.00;;;;;;4841894;29;20060;-31
2022/12/06 05:21:21;;;;;;;5.40;0.38;;;16.00;1.00;;;;;;4841802;29;20494;-31
2022/12/06 05:23:50;;;;;;;10.40;1.60;;;16.00;1.00;;;;;;4841413;29;20049;-32
2022/12/06 05:26:19;;;;;;;8.50;0.50;;;16.00;1.00;;;;;;4841540;29;20566;-31
2022/12/06 05:28:46;;;;;;;7.35;0.40;;;16.00;1.00;;;;;;4841790;29;20050;-32
2022/12/06 05:31:14;;;;;;;2.45;0.40;;;16.00;1.00;;;;;;4841657;29;20050;-31
2022/12/06 05:33:41;;;;;;;0.60;0.20;;;16.00;1.00;;;;;;4841282;29;20058;-31
2022/12/06 05:36:10;;;;;;;2.13;0.50;;;15.90;1.00;;;;;;4825510;29;20506;-31
2022/12/06 05:38:37;;;;;;;1.27;0.30;;;16.00;1.00;;;;;;4841634;29;20079;-32
2022/12/06 05:41:06;;;;;;;5.88;0.32;;;15.90;1.00;;;;;;4841298;29;20174;-32
2022/12/06 05:43:33;;;;;;;1.45;0.65;;;15.90;1.00;;;;;;4841162;29;20589;-31
2022/12/06 05:46:00;;;;;;;2.83;0.50;;;15.90;1.00;;;;;;4841405;29;20045;-32
2022/12/06 05:48:27;;;;;;;3.78;0.85;;;15.90;1.00;;;;;;4841512;29;20515;-31
2022/12/06 05:50:54;;;;;;;1.30;0.55;;;15.80;1.00;;;;;;4841333;29;20499;-31
2022/12/06 05:53:20;;;;;;;2.50;0.55;;;15.90;1.00;;;;;;4837202;29;20470;-32
2022/12/06 05:55:48;;;;;;;1.95;0.35;;;15.80;1.00;;;;;;4826144;29;20125;-31
2022/12/06 05:58:15;;;;;;;1.38;0.40;;;15.80;1.00;;;;;;4822756;29;20048;-31
2022/12/06 06:00:47;;;;;;;3.25;0.35;;;15.80;1.00;;;;;;4830009;29;20103;-31
2022/12/06 06:03:15;;;;;;;0.73;0.40;;;15.80;1.00;;;;;;4824469;29;20105;-31
2022/12/06 06:05:48;;;;;;;1.75;0.35;;;15.80;1.00;;;;;;4825059;29;20466;-31
2022/12/06 06:08:16;;;;;;;4.28;0.52;;;15.80;1.00;;;;;;4841304;29;20133;-31
2022/12/06 06:10:43;;;;;;;1.40;0.25;;;15.70;1.00;;;;;;4841109;29;20046;-31
2022/12/06 06:13:10;;;;;;;2.05;0.60;;;15.80;1.00;;;;;;4840929;29;20112;-32
2022/12/06 06:15:37;;;;;;;0.88;0.40;;;15.80;1.00;;;;;;4841185;29;20050;-32
2022/12/06 06:18:07;;;;;;;1.15;0.50;;;15.70;1.00;;;;;;4824822;29;20407;-32
2022/12/06 06:20:48;;;;;;;0.50;0.22;;;15.70;1.00;;;;;;4841277;29;20472;-32
2022/12/06 06:23:28;;;;;;;3.47;0.55;;;15.70;1.00;;;;;;4810362;29;20054;-32
2022/12/06 06:25:58;;;;;;;2.60;1.20;;;15.70;1.00;;;;;;4841068;29;20084;-32
2022/12/06 06:28:29;;;;;;;4.90;0.52;;;15.70;1.00;;;;;;4841235;29;20038;-32
2022/12/06 06:30:56;;;;;;;1.90;0.20;;;15.70;1.00;;;;;;4824716;29;20494;-32
2022/12/06 06:33:38;;;;;;;0.80;0.40;;;15.60;1.00;;;;;;4840403;29;20487;-32
2022/12/06 06:36:08;;;;;;;1.77;0.40;;;15.60;1.00;;;;;;4841122;29;20125;-31
2022/12/06 06:38:57;;;;;;;2.05;0.80;;;15.60;1.00;;;;;;4841196;29;20073;-31
2022/12/06 06:42:06;;;;;;;0.77;0.40;;;15.60;1.00;;;;;;4839443;29;20118;-32
2022/12/06 06:44:36;;;;;;;1.45;0.50;;;15.60;1.00;;;;;;4824367;29;20062;-35
2022/12/06 06:47:28;;;;;;;1.13;0.38;;;15.60;1.00;;;;;;4840800;29;20115;-33
2022/12/06 06:49:59;;;;;;;2.47;0.43;;;15.60;1.00;;;;;;4840822;29;20046;-32
2022/12/06 06:52:27;;;;;;;2.78;0.30;;;15.50;1.00;;;;;;4842959;29;20046;-34
2022/12/06 06:54:54;;;;;;;1.17;0.40;;;15.60;1.00;;;;;;4844386;29;20148;-32
2022/12/06 06:57:21;;;;;;;1.45;0.50;;;15.50;1.00;;;;;;4844333;29;20070;-33
2022/12/06 06:59:48;;;;;;;2.60;0.40;;;15.50;1.00;;;;;;4827711;29;20050;-36
2022/12/06 07:02:16;;;;;;;1.05;0.40;;;15.50;1.00;;;;;;4844111;29;20509;-34
2022/12/06 07:04:43;;;;;;;2.35;0.40;;;15.50;1.00;;;;;;4844012;29;20050;-35
2022/12/06 07:07:10;;;;;;;2.47;0.57;;;15.50;1.00;;;;;;4827506;29;20145;-36
2022/12/06 07:09:46;;;;;;;0.90;0.30;;;15.50;1.00;;;;;;4829045;29;20141;-34
2022/12/06 07:12:13;;;;;;;2.88;0.57;;;15.50;1.00;;;;;;4827459;29;20042;-35
2022/12/06 07:14:40;;;;;;;0.95;0.35;;;15.50;1.00;;;;;;4827669;29;20067;-35
2022/12/06 07:17:06;;;;;;;0.93;0.38;;;15.40;1.00;;;;;;4843970;29;20499;-39
2022/12/06 07:19:33;;;;;;;3.15;0.50;;;15.40;1.00;;;;;;4844012;29;20060;-33
2022/12/06 07:22:00;;;;;;;1.35;0.40;;;15.40;1.00;;;;;;4844043;29;20068;-35
2022/12/06 07:24:27;;;;;;;3.53;0.30;;;15.40;1.00;;;;;;4843722;29;20109;-34
2022/12/06 07:26:55;;;;;;;2.10;0.30;;;15.40;1.00;;;;;;4843854;29;20106;-32
2022/12/06 07:29:22;;;;;;;0.77;0.32;;;15.40;1.00;;;;;;4827387;29;20061;-34
2022/12/06 07:31:49;;;;;;;2.10;0.45;;;15.40;1.00;;;;;;4827134;29;20041;-33
2022/12/06 07:34:15;;;;;;;1.50;0.38;;;15.40;1.00;;;;;;4842683;29;20049;-35
2022/12/06 07:36:42;;;;;;;1.17;0.40;;;15.40;1.00;;;;;;4842623;29;20129;-33
2022/12/06 07:39:09;;;;;;;0.75;0.30;;;15.40;1.00;;;;;;4843424;29;20140;-32
2022/12/06 07:47:33;;;;;;;1.27;0.47;;;15.30;1.00;;;;;;4822326;29;20046;-34
2022/12/06 07:50:00;;;;;;;1.23;0.40;;;15.30;1.00;;;;;;4837437;29;20074;-33
2022/12/06 07:52:35;;;;;;;0.98;0.20;;;15.30;1.00;;;;;;4837897;29;20046;-32
2022/12/06 07:55:04;;;;;;;1.13;0.20;;;15.30;1.00;;;;;;4838727;29;20137;-34
2022/12/06 07:57:31;;;;;;;0.95;0.50;;;15.30;1.00;;;;;;4838940;29;20041;-37
2022/12/06 07:59:57;;;;;;;3.80;0.22;;;15.30;1.00;;;;;;4837339;29;20060;-35
2022/12/06 08:02:27;;;;;;;2.38;0.38;;;15.30;1.00;;;;;;4819985;29;20042;-32
2022/12/06 08:04:54;;;;;;;1.23;0.60;;;15.30;1.00;;;;;;4842090;29;20046;-37
2022/12/06 08:07:22;;;;;;;1.00;0.32;;;15.30;1.00;;;;;;4842952;29;20050;-35
2022/12/06 08:09:50;;;;;;;3.10;0.50;;;15.20;1.00;;;;;;4843031;29;20042;-33
2022/12/06 08:12:16;;;;;;;1.23;0.38;;;15.20;1.00;;;;;;4842949;29;20106;-32
2022/12/06 08:14:43;;;;;;;1.50;0.40;;;15.20;1.00;;;;;;4842883;29;20058;-33
2022/12/06 08:17:10;;;;;;;2.40;0.77;;;15.20;1.00;;;;;;4842977;29;20058;-35
2022/12/06 08:19:36;;;;;;;1.13;0.38;;;15.20;1.00;;;;;;4826486;29;20593;-33
2022/12/06 08:22:03;;;;;;;1.20;0.50;;;15.20;1.00;;;;;;4842737;29;20138;-36
2022/12/06 08:24:30;;;;;;;0.80;0.47;;;15.20;1.00;;;;;;4842353;29;20079;-33
2022/12/06 08:26:58;;;;;;;2.33;0.50;;;15.10;1.00;;;;;;4842721;29;20057;-34
2022/12/06 08:29:25;;;;;;;0.70;0.30;;;15.20;1.00;;;;;;4826368;29;20095;-34
2022/12/06 08:31:52;;;;;;;2.00;0.52;;;15.20;1.00;;;;;;4826161;29;20186;-33
2022/12/06 08:34:19;;;;;;;1.05;0.60;;;15.20;1.00;;;;;;4842132;29;20132;-34
2022/12/06 08:36:45;;;;;;;0.88;0.38;;;15.10;1.00;;;;;;4842651;29;20049;-32
2022/12/06 08:39:12;;;;;;;0.57;0.20;;;15.10;1.00;;;;;;4842456;29;20049;-35
2022/12/06 08:41:54;;;;;;;5.05;0.68;;;15.10;1.00;;;;;;4842591;29;20106;-37
2022/12/06 08:44:21;;;;;;;3.13;0.60;;;15.10;1.00;;;;;;4842148;29;20487;-32
2022/12/06 08:46:48;;;;;;;1.98;0.50;;;15.10;1.00;;;;;;4842039;29;20483;-33
2022/12/06 08:49:16;;;;;;;2.75;0.38;;;15.10;1.00;;;;;;4841977;29;20116;-32
2022/12/06 08:51:43;;;;;;;2.45;0.85;;;15.10;1.00;;;;;;4842493;29;20050;-36
2022/12/06 08:54:13;;;;;;;0.80;0.40;;;15.10;1.00;;;;;;4842126;29;20364;-35
2022/12/06 08:56:40;;;;;;;2.15;0.40;;;15.10;1.00;;;;;;4842272;29;20391;-35
2022/12/06 08:59:07;;;;;;;5.10;0.77;;;15.10;1.00;;;;;;4842200;29;20091;-35
2022/12/06 09:01:33;;;;;;;1.23;0.30;;;15.10;1.00;;;;;;4842125;29;20044;-37
2022/12/06 09:04:06;;;;;;;0.80;0.45;;;15.10;1.00;;;;;;4841563;29;20466;-31
2022/12/06 09:06:35;;;;;;;2.45;0.63;;;15.10;1.00;;;;;;4842152;29;20479;-32
2022/12/06 09:09:02;;;;;;;1.73;0.80;;;15.10;1.00;;;;;;4841939;29;20077;-34
2022/12/06 09:11:29;;;;;;;0.73;0.30;;;15.00;1.00;;;;;;4841524;29;20452;-35
2022/12/06 09:13:55;;;;;;;4.65;0.43;;;15.00;1.00;;;;;;4840932;29;20060;-35
2022/12/06 09:16:23;;;;;;;1.05;0.25;;;15.00;1.00;;;;;;4842037;29;20050;-33
2022/12/06 09:18:50;;;;;;;1.65;0.40;;;15.00;1.00;;;;;;4841458;29;20054;-37
2022/12/06 09:21:21;;;;;;;2.35;0.60;;;15.00;1.00;;;;;;4841758;29;20085;-32
2022/12/06 09:23:49;;;;;;;4.05;0.60;;;15.00;1.00;;;;;;4841538;29;20326;-35
2022/12/06 09:26:15;;;;;;;1.48;0.40;;;15.00;1.00;;;;;;4841407;29;20132;-34
2022/12/06 09:28:48;;;;;;;1.25;0.57;;;15.00;1.00;;;;;;4825857;29;20052;-34
2022/12/06 09:31:16;;;;;;;1.53;0.60;;;15.00;1.00;;;;;;4841646;29;20104;-38
2022/12/06 09:33:43;;;;;;;1.13;0.50;;;15.00;1.00;;;;;;4841253;29;20050;-34
2022/12/06 09:36:32;;;;;;;1.15;0.50;;;15.00;1.00;;;;;;4841639;29;20049;-35
2022/12/06 09:39:05;;;;;;;2.78;0.82;;;15.00;1.00;;;;;;4824869;29;20232;-37
2022/12/06 09:42:11;;;;;;;1.42;0.55;;;15.00;1.00;;;;;;4841556;29;20050;-37
2022/12/06 09:45:02;;;;;;;0.95;0.30;;;15.00;1.00;;;;;;4841092;29;20049;-36
2022/12/06 09:48:12;;;;;;;1.50;0.50;;;15.00;1.00;;;;;;4841484;29;20491;-35
2022/12/06 09:50:53;;;;;;;0.88;0.40;;;15.00;1.00;;;;;;4841423;29;20175;-32
2022/12/06 09:53:53;;;;;;;2.15;0.50;;;14.90;1.00;;;;;;4824807;29;20522;-35
2022/12/06 09:56:38;;;;;;;1.23;0.52;;;14.90;1.00;;;;;;4834178;29;20054;-35
2022/12/06 09:59:14;;;;;;;0.70;0.38;;;14.90;1.00;;;;;;4841192;29;20102;-32
2022/12/06 10:02:00;;;;;;;0.63;0.40;;;14.90;1.00;;;;;;4840962;29;20050;-33
2022/12/06 10:04:54;;;;;;;0.93;0.50;;;14.90;1.00;;;;;;4840901;29;20042;-33
2022/12/06 10:07:31;;;;;;;1.38;0.32;;;14.90;1.00;;;;;;4841146;29;20054;-34
2022/12/06 10:10:09;;;;;;;2.15;0.77;;;14.90;1.00;;;;;;4841264;29;20050;-36
2022/12/06 10:12:51;;;;;;;1.25;0.55;;;14.90;1.00;;;;;;4840924;29;20045;-37
2022/12/06 10:15:49;;;;;;;0.98;0.22;;;14.90;1.00;;;;;;4840998;29;20133;-35
2022/12/06 10:18:43;;;;;;;2.53;0.40;;;14.90;1.00;;;;;;4841069;29;20132;-34
2022/12/06 10:21:56;;;;;;;1.55;0.43;;;14.90;1.00;;;;;;4841325;29;20503;-32
2022/12/06 10:25:00;;;;;;;3.03;0.30;;;14.90;1.00;;;;;;4840677;29;20046;-35
2022/12/06 10:27:39;;;;;;;1.15;0.40;;;14.90;1.00;;;;;;4825611;29;20441;-39
2022/12/06 10:30:12;;;;;;;0.63;0.35;;;14.90;1.00;;;;;;4844939;29;20057;-35
2022/12/06 10:33:27;;;;;;;0.95;0.50;;;14.90;1.00;;;;;;4827862;29;20053;-34
2022/12/06 10:36:00;;;;;;;1.30;0.60;;;15.00;1.00;;;;;;4824088;29;20107;-35
2022/12/06 10:38:47;;;;;;;1.35;0.65;;;14.90;1.00;;;;;;4824107;29;20054;-35
2022/12/06 10:41:21;;;;;;;1.95;0.50;;;14.90;1.00;;;;;;4839144;29;20073;-37
2022/12/06 10:44:06;;;;;;;0.52;0.28;;;14.90;1.00;;;;;;4827489;29;20053;-35
2022/12/06 10:47:02;;;;;;;1.08;0.47;;;14.90;1.00;;;;;;4844576;29;20532;-32
2022/12/06 10:49:50;;;;;;;0.98;0.28;;;14.90;1.00;;;;;;4844375;29;20125;-33
2022/12/06 10:53:02;;;;;;;0.70;0.30;;;14.90;1.00;;;;;;4827718;29;20073;-34
2022/12/06 10:55:55;;;;;;;0.93;0.43;;;14.90;1.00;;;;;;4843397;29;20084;-35
2022/12/06 10:58:50;;;;;;;1.17;0.35;;;14.90;1.00;;;;;;4844346;29;20149;-34
2022/12/06 11:01:22;;;;;;;1.17;0.32;;;14.90;1.00;;;;;;4827796;29;20129;-33
2022/12/06 11:04:00;;;;;;;3.33;0.50;;;14.90;1.00;;;;;;4843807;29;20494;-33
2022/12/06 11:06:44;;;;;;;0.60;0.30;;;14.90;1.00;;;;;;4844001;29;20558;-34
2022/12/06 11:09:35;;;;;;;4.88;0.60;;;14.90;1.00;;;;;;4844151;29;20047;-36
2022/12/06 11:12:15;;;;;;;0.80;0.35;;;14.90;1.00;;;;;;4812620;29;20049;-36
2022/12/06 11:14:46;;;;;;;0.60;0.25;;;14.90;1.00;;;;;;4843744;29;20133;-34
2022/12/06 11:17:26;;;;;;;1.20;0.45;;;14.90;1.00;;;;;;4844007;29;20120;-34
2022/12/06 11:20:22;;;;;;;1.35;0.50;;;14.90;1.00;;;;;;4843972;29;20042;-36
2022/12/06 11:22:55;;;;;;;0.50;0.17;;;14.90;1.00;;;;;;4843477;29;20045;-35
2022/12/06 11:25:29;;;;;;;1.67;0.40;;;14.90;1.00;;;;;;4843780;29;20050;-39
2022/12/06 11:28:03;;;;;;;0.73;0.20;;;14.90;1.00;;;;;;4843749;29;20102;-35
2022/12/06 11:30:32;;;;;;;1.08;0.38;;;14.90;1.00;;;;;;4843696;29;20042;-32
2022/12/06 11:33:00;;;;;;;0.80;0.35;;;14.90;1.00;;;;;;4843577;29;20049;-34
2022/12/06 11:35:28;;;;;;;1.77;0.80;;;14.90;1.00;;;;;;4827250;29;20053;-33
2022/12/06 11:37:59;;;;;;;0.60;0.35;;;14.90;1.00;;;;;;4843287;29;20074;-36
2022/12/06 11:40:29;;;;;;;2.08;0.47;;;14.90;1.00;;;;;;4843858;29;20088;-39
2022/12/06 11:42:59;;;;;;;1.15;0.30;;;14.90;1.00;;;;;;4843114;29;20052;-36
2022/12/06 11:45:32;;;;;;;0.82;0.40;;;14.90;1.00;;;;;;4843485;29;20061;-33
2022/12/06 11:48:06;;;;;;;1.60;0.30;;;14.90;1.00;;;;;;4843492;29;20050;-38
2022/12/06 11:50:35;;;;;;;1.48;0.30;;;14.90;1.00;;;;;;4843391;29;20438;-37
2022/12/06 11:53:06;;;;;;;1.13;0.75;;;14.80;1.00;;;;;;4826508;29;20089;-36
2022/12/06 11:55:45;;;;;;;1.25;0.55;;;14.80;1.00;;;;;;4843433;29;20482;-35
2022/12/06 11:58:25;;;;;;;1.00;0.22;;;14.80;1.00;;;;;;4843363;29;20395;-34
2022/12/06 12:01:03;;;;;;;0.73;0.30;;;14.80;1.00;;;;;;4826873;29;20054;-38
2022/12/06 12:03:33;;;;;;;0.60;0.40;;;14.80;1.00;;;;;;4842845;29;20414;-36
2022/12/06 12:06:07;;;;;;;0.93;0.32;;;14.80;1.00;;;;;;4843269;29;20046;-34
2022/12/06 12:08:36;;;;;;;1.35;0.20;;;14.80;1.00;;;;;;4826976;29;20049;-33
2022/12/06 12:11:03;;;;;;;0.45;0.20;;;14.80;1.00;;;;;;4826405;29;20041;-36
2022/12/06 12:13:43;;;;;;;0.80;0.22;;;14.80;1.00;;;;;;4842687;29;20053;-33
2022/12/06 12:16:22;;;;;;;1.42;0.45;;;14.80;1.00;;;;;;4826404;29;20121;-38
2022/12/06 12:18:57;;;;;;;0.60;0.20;;;14.80;1.00;;;;;;4842949;29;20042;-36
2022/12/06 12:21:39;;;;;;;1.92;0.50;;;14.80;1.00;;;;;;4842812;29;20050;-33
2022/12/06 12:24:40;;;;;;;0.65;0.25;;;14.80;1.00;;;;;;4842359;29;20053;-33
2022/12/06 12:27:38;;;;;;;0.73;0.20;;;14.80;1.00;;;;;;4842775;29;20048;-37
2022/12/06 12:30:15;;;;;;;0.93;0.30;;;14.80;1.00;;;;;;4842627;29;20053;-37
2022/12/06 12:32:44;;;;;;;0.98;0.50;;;14.80;1.00;;;;;;4842879;29;20141;-37
2022/12/06 12:35:20;;;;;;;1.20;0.28;;;14.80;1.00;;;;;;4842432;29;20456;-34
2022/12/06 12:37:54;;;;;;;1.20;0.40;;;14.80;1.00;;;;;;4842520;29;20049;-32
2022/12/06 12:40:37;;;;;;;0.90;0.40;;;14.80;1.00;;;;;;4842984;29;20106;-32
2022/12/06 12:43:14;;;;;;;1.05;0.30;;;14.70;1.00;;;;;;4842016;29;20567;-34
2022/12/06 12:46:14;;;;;;;0.88;0.40;;;14.80;1.00;;;;;;4842279;29;20050;-33
2022/12/06 12:48:43;;;;;;;0.43;0.20;;;14.80;1.00;;;;;;4825141;29;20559;-38
2022/12/06 12:51:32;;;;;;;1.90;0.25;;;14.70;1.00;;;;;;4842277;29;20551;-36
2022/12/06 12:54:02;;;;;;;0.73;0.30;;;14.70;1.00;;;;;;4841750;29;20045;-35
2022/12/06 12:56:33;;;;;;;1.85;0.22;;;14.80;1.00;;;;;;4842246;29;20050;-35
2022/12/06 12:59:02;;;;;;;0.70;0.30;;;14.70;1.00;;;;;;4841947;29;20133;-36
2022/12/06 13:01:44;;;;;;;0.93;0.30;;;14.70;1.00;;;;;;4842207;29;20081;-32
2022/12/06 13:04:30;;;;;;;1.23;0.30;;;14.70;1.00;;;;;;4841874;29;20072;-33
2022/12/06 13:07:04;;;;;;;2.45;0.30;;;14.70;1.00;;;;;;4842170;29;20050;-35
2022/12/06 13:09:57;;;;;;;1.55;0.40;;;14.70;1.00;;;;;;4841802;29;20550;-33
2022/12/06 13:12:37;;;;;;;1.95;0.30;;;14.70;1.00;;;;;;4841774;29;20042;-39
2022/12/06 13:15:28;;;;;;;1.40;0.45;;;14.70;1.00;;;;;;4842053;29;20046;-37
2022/12/06 13:18:33;;;;;;;0.70;0.20;;;14.70;1.00;;;;;;4825233;29;20089;-36
2022/12/06 13:21:12;;;;;;;2.97;0.28;;;14.70;1.00;;;;;;4821554;29;20050;-39
2022/12/06 13:23:41;;;;;;;0.98;0.30;;;14.70;1.00;;;;;;4823494;29;20136;-37
2022/12/06 13:26:32;;;;;;;2.50;0.70;;;14.70;1.00;;;;;;4841652;29;20046;-33
2022/12/06 13:29:06;;;;;;;1.13;0.25;;;14.70;1.00;;;;;;4841910;29;20042;-35
2022/12/06 13:31:38;;;;;;;0.82;0.20;;;14.70;1.00;;;;;;4841653;29;20041;-34
2022/12/06 13:34:30;;;;;;;0.70;0.20;;;14.70;1.00;;;;;;4841206;29;20141;-37
2022/12/06 13:37:28;;;;;;;1.40;0.38;;;14.70;1.00;;;;;;4839483;29;20503;-35
2022/12/06 13:39:56;;;;;;;0.30;0.10;;;14.70;1.00;;;;;;4822913;29;20065;-34
2022/12/06 13:42:36;;;;;;;0.82;0.30;;;14.70;1.00;;;;;;4841303;29;20123;-34
2022/12/06 13:45:37;;;;;;;1.33;0.30;;;14.70;1.00;;;;;;4841477;29;20372;-37
2022/12/06 13:48:50;;;;;;;1.35;0.50;;;14.70;1.00;;;;;;4839388;29;20169;-40
2022/12/06 13:51:36;;;;;;;1.20;0.10;;;14.70;1.00;;;;;;4841380;29;20103;-36
2022/12/06 13:54:03;;;;;;;0.85;0.13;;;14.70;1.00;;;;;;4840992;29;20455;-42
2022/12/06 13:56:33;;;;;;;0.73;0.40;;;14.70;1.00;;;;;;4841359;29;20046;-35
2022/12/06 13:59:24;;;;;;;1.40;0.40;;;14.60;1.00;;;;;;4825134;29;20502;-34
2022/12/06 14:01:52;;;;;;;1.48;0.25;;;14.60;1.00;;;;;;4841304;29;20061;-37